createdAt,value
2023-05-17T00:01:12.093Z,100572.12
2023-05-17T00:03:44.084Z,100573.16
2023-05-17T00:06:16.483Z,100571.75
2023-05-17T00:08:48.486Z,100567.83
2023-05-17T00:11:20.255Z,100567.27
2023-05-17T00:13:51.914Z,100564.08
2023-05-17T00:16:23.619Z,100566.41
2023-05-17T00:18:55.707Z,100570.17
2023-05-17T00:21:27.522Z,100571.56
2023-05-17T00:23:59.270Z,100571.85
2023-05-17T00:26:31.074Z,100574.39
2023-05-17T00:29:03.433Z,100580.57
2023-05-17T00:31:35.236Z,100572.23
2023-05-17T00:34:06.971Z,100572.54
2023-05-17T00:36:38.996Z,100567.98
2023-05-17T00:39:10.806Z,100565.83
2023-05-17T00:41:42.982Z,100567.60
2023-05-17T00:44:15.431Z,100572.55
2023-05-17T00:46:47.773Z,100568.94
2023-05-17T00:49:20.210Z,100572.46
2023-05-17T00:51:52.709Z,100574.29
2023-05-17T00:54:24.827Z,100586.56
2023-05-17T00:56:59.357Z,100582.55
2023-05-17T00:59:32.486Z,100574.54
2023-05-17T01:02:05.032Z,100590.61
2023-05-17T01:04:37.468Z,100604.00
2023-05-17T01:07:10.450Z,100599.61
2023-05-17T01:09:43.449Z,100598.83
2023-05-17T01:12:26.148Z,100600.49
2023-05-17T01:15:08.603Z,100600.45
2023-05-17T01:17:51.665Z,100595.05
2023-05-17T01:20:28.946Z,100596.34
2023-05-17T01:23:21.802Z,100596.76
2023-05-17T01:26:03.830Z,100599.42
2023-05-17T01:28:38.316Z,100606.84
2023-05-17T01:31:12.171Z,100607.04
2023-05-17T01:33:45.011Z,100609.48
2023-05-17T01:36:16.803Z,100612.69
2023-05-17T01:38:48.785Z,100611.41
2023-05-17T01:41:28.066Z,100608.79
2023-05-17T01:44:06.974Z,100607.05
2023-05-17T01:46:42.798Z,100608.88
2023-05-17T01:49:21.812Z,100609.41
2023-05-17T01:51:59.550Z,100607.73
2023-05-17T01:54:44.754Z,100606.99
2023-05-17T01:57:21.057Z,100607.35
2023-05-17T01:59:55.822Z,100613.46
2023-05-17T02:02:28.395Z,100617.02
2023-05-17T02:05:00.638Z,100616.35
2023-05-17T02:07:32.546Z,100611.04
2023-05-17T02:10:04.781Z,100611.80
2023-05-17T02:12:36.979Z,100613.03
2023-05-17T02:15:12.021Z,100605.86
2023-05-17T02:17:44.773Z,100607.63
2023-05-17T02:20:17.407Z,100614.15
2023-05-17T02:22:49.170Z,100615.42
2023-05-17T02:25:21.035Z,100616.09
2023-05-17T02:27:52.776Z,100615.30
2023-05-17T02:30:24.698Z,100618.30
2023-05-17T02:32:56.871Z,100621.70
2023-05-17T02:35:29.078Z,100624.66
2023-05-17T02:38:02.074Z,100623.04
2023-05-17T02:40:33.837Z,100630.76
2023-05-17T02:43:07.818Z,100639.14
2023-05-17T02:45:41.403Z,100650.23
2023-05-17T02:48:13.247Z,100655.09
2023-05-17T02:50:45.003Z,100663.98
2023-05-17T02:53:16.710Z,100662.70
2023-05-17T02:55:48.550Z,100668.82
2023-05-17T02:58:20.375Z,100664.42
2023-05-17T03:00:52.286Z,100657.40
2023-05-17T03:03:24.179Z,100645.50
2023-05-17T03:05:56.162Z,100641.84
2023-05-17T03:08:28.008Z,100639.94
2023-05-17T03:11:01.656Z,100642.80
2023-05-17T03:13:33.824Z,100641.77
2023-05-17T03:16:06.206Z,100648.98
2023-05-17T03:18:38.958Z,100656.81
2023-05-17T03:21:10.924Z,100670.72
2023-05-17T03:23:42.772Z,100678.27
2023-05-17T03:26:14.515Z,100674.34
2023-05-17T03:28:51.841Z,100669.52
2023-05-17T03:31:24.081Z,100663.39
2023-05-17T03:33:57.086Z,100665.94
2023-05-17T03:36:28.875Z,100668.46
2023-05-17T03:39:00.740Z,100675.41
2023-05-17T03:41:33.507Z,100680.27
2023-05-17T03:44:04.103Z,100687.29
2023-05-17T03:46:36.894Z,100687.20
2023-05-17T03:49:08.271Z,100691.40
2023-05-17T03:51:40.390Z,100698.77
2023-05-17T03:54:12.144Z,100697.66
2023-05-17T03:56:47.051Z,100700.20
2023-05-17T03:59:18.901Z,100701.97
2023-05-17T04:01:50.929Z,100717.04
2023-05-17T04:04:23.325Z,100715.53
2023-05-17T04:06:55.279Z,100718.25
2023-05-17T04:09:27.173Z,100720.23
2023-05-17T04:11:59.085Z,100721.23
2023-05-17T04:14:31.520Z,100715.27
2023-05-17T04:17:03.411Z,100714.06
2023-05-17T04:19:36.365Z,100704.92
2023-05-17T04:22:08.741Z,100707.99
2023-05-17T04:24:40.542Z,100706.19
2023-05-17T04:27:12.448Z,100710.67
2023-05-17T04:29:44.231Z,100708.31
2023-05-17T04:32:16.584Z,100707.56
2023-05-17T04:34:48.332Z,100712.23
2023-05-17T04:37:20.236Z,100717.57
2023-05-17T04:39:54.678Z,100715.98
2023-05-17T04:42:27.005Z,100712.20
2023-05-17T04:45:01.235Z,100712.89
2023-05-17T04:47:32.253Z,100719.40
2023-05-17T04:50:04.918Z,100717.64
2023-05-17T04:52:37.219Z,100723.46
2023-05-17T04:55:10.309Z,100720.70
2023-05-17T04:57:42.591Z,100727.70
2023-05-17T05:00:18.871Z,100728.38
2023-05-17T05:02:54.567Z,100730.77
2023-05-17T05:05:27.296Z,100729.87
2023-05-17T05:07:59.685Z,100728.71
2023-05-17T05:10:32.014Z,100728.20
2023-05-17T05:13:04.505Z,100727.55
2023-05-17T05:15:36.462Z,100730.29
2023-05-17T05:18:09.000Z,100733.50
2023-05-17T05:20:40.858Z,100735.60
2023-05-17T05:23:12.654Z,100739.73
2023-05-17T05:25:46.059Z,100746.55
2023-05-17T05:28:18.534Z,100744.91
2023-05-17T05:30:51.119Z,100743.92
2023-05-17T05:33:24.675Z,100744.81
2023-05-17T05:35:56.796Z,100747.90
2023-05-17T05:38:28.739Z,100749.83
2023-05-17T05:41:01.043Z,100749.41
2023-05-17T05:43:33.501Z,100753.14
2023-05-17T05:46:05.662Z,100754.32
2023-05-17T05:48:39.599Z,100763.40
2023-05-17T05:51:12.188Z,100770.13
2023-05-17T05:53:46.368Z,100775.34
2023-05-17T05:56:18.262Z,100771.42
2023-05-17T05:58:50.507Z,100775.63
2023-05-17T06:01:22.938Z,100773.34
2023-05-17T06:03:54.723Z,100770.29
2023-05-17T06:06:29.731Z,100770.21
2023-05-17T06:09:01.882Z,100766.83
2023-05-17T06:11:33.917Z,100764.17
2023-05-17T06:14:06.196Z,100765.60
2023-05-17T06:16:38.139Z,100768.92
2023-05-17T06:19:10.119Z,100772.77
2023-05-17T06:21:42.012Z,100776.11
2023-05-17T06:24:13.918Z,100782.11
2023-05-17T06:26:47.179Z,100780.42
2023-05-17T06:29:19.468Z,100782.85
2023-05-17T06:31:51.324Z,100774.82
2023-05-17T06:34:23.174Z,100770.08
2023-05-17T06:36:55.342Z,100770.97
2023-05-17T06:39:27.277Z,100773.49
2023-05-17T06:41:59.512Z,100781.42
2023-05-17T06:44:32.884Z,100780.63
2023-05-17T06:47:05.348Z,100786.84
2023-05-17T06:49:38.774Z,100789.98
2023-05-17T06:52:10.674Z,100784.00
2023-05-17T06:54:42.411Z,100798.75
2023-05-17T06:57:14.143Z,100801.77
2023-05-17T06:59:45.982Z,100811.29
2023-05-17T07:02:18.096Z,100816.33
2023-05-17T07:04:50.132Z,100820.48
2023-05-17T07:07:22.188Z,100828.26
2023-05-17T07:09:53.937Z,100827.89
2023-05-17T07:12:25.728Z,100828.70
2023-05-17T07:14:57.883Z,100828.02
2023-05-17T07:17:29.794Z,100829.02
2023-05-17T07:20:01.930Z,100823.90
2023-05-17T07:22:34.370Z,100827.40
2023-05-17T07:25:10.370Z,100832.55
2023-05-17T07:27:42.188Z,100834.02
2023-05-17T07:30:15.247Z,100833.95
2023-05-17T07:32:47.161Z,100837.18
2023-05-17T07:35:21.695Z,100844.23
2023-05-17T07:37:53.807Z,100844.02
2023-05-17T07:40:25.683Z,100847.84
2023-05-17T07:42:57.487Z,100849.36
2023-05-17T07:45:29.692Z,100850.20
2023-05-17T07:48:00.645Z,100852.16
2023-05-17T07:50:32.989Z,100862.17
2023-05-17T07:53:04.887Z,100867.39
2023-05-17T07:55:36.919Z,100867.99
2023-05-17T07:58:10.928Z,100868.09
2023-05-17T08:00:43.095Z,100872.06
2023-05-17T08:03:17.172Z,100868.72
2023-05-17T08:05:49.392Z,100874.40
2023-05-17T08:08:21.704Z,100886.76
2023-05-17T08:10:53.474Z,100882.55
2023-05-17T08:13:25.350Z,100875.25
2023-05-17T08:16:08.885Z,100866.11
2023-05-17T08:18:45.587Z,100862.99
2023-05-17T08:21:17.387Z,100865.02
2023-05-17T08:23:49.109Z,100859.52
2023-05-17T08:26:20.904Z,100865.63
2023-05-17T08:28:52.685Z,100863.35
2023-05-17T08:31:24.573Z,100860.20
2023-05-17T08:33:56.792Z,100866.12
2023-05-17T08:36:29.426Z,100872.80
2023-05-17T08:39:01.186Z,100879.21
2023-05-17T08:41:33.571Z,100874.56
2023-05-17T08:44:07.175Z,100874.40
2023-05-17T08:46:40.659Z,100876.23
2023-05-17T08:49:15.863Z,100888.40
2023-05-17T08:51:51.156Z,100886.63
2023-05-17T08:54:23.471Z,100891.49
2023-05-17T08:56:59.608Z,100871.73
2023-05-17T08:59:33.862Z,100889.66
2023-05-17T09:02:07.732Z,100894.36
2023-05-17T09:04:40.604Z,100899.62
2023-05-17T09:07:13.509Z,100891.88
2023-05-17T09:09:46.524Z,100884.20
2023-05-17T09:12:18.442Z,100887.33
2023-05-17T09:14:50.377Z,100884.70
2023-05-17T09:17:23.794Z,100880.23
2023-05-17T09:19:56.394Z,100874.63
2023-05-17T09:22:29.692Z,100875.46
2023-05-17T09:25:04.516Z,100881.36
2023-05-17T09:27:36.309Z,100878.48
2023-05-17T09:30:14.208Z,100876.83
2023-05-17T09:32:53.778Z,100879.46
2023-05-17T09:35:31.535Z,100880.27
2023-05-17T09:38:09.606Z,100875.36
2023-05-17T09:40:43.010Z,100882.19
2023-05-17T09:43:15.434Z,100888.30
2023-05-17T09:45:56.818Z,100887.55
2023-05-17T09:48:29.547Z,100885.30
2023-05-17T09:51:03.199Z,100883.63
2023-05-17T09:53:40.060Z,100888.43
2023-05-17T09:56:13.374Z,100891.34
2023-05-17T09:58:46.172Z,100889.32
2023-05-17T10:01:17.569Z,100897.89
2023-05-17T10:03:51.492Z,100895.61
2023-05-17T10:06:39.004Z,100892.63
2023-05-17T10:09:18.557Z,100889.56
2023-05-17T10:11:53.324Z,100894.63
2023-05-17T10:14:31.854Z,100896.99
2023-05-17T10:17:04.153Z,100894.06
2023-05-17T10:19:36.971Z,100898.23
2023-05-17T10:22:22.449Z,100897.50
2023-05-17T10:24:58.526Z,100894.26
2023-05-17T10:27:31.521Z,100890.12
2023-05-17T10:30:03.709Z,100893.14
2023-05-17T10:32:37.286Z,100898.80
2023-05-17T10:35:12.331Z,100894.02
2023-05-17T10:37:44.430Z,100896.30
2023-05-17T10:40:18.031Z,100894.29
2023-05-17T10:42:53.772Z,100892.92
2023-05-17T10:45:28.088Z,100898.70
2023-05-17T10:48:02.021Z,100904.21
2023-05-17T10:50:34.026Z,100900.06
2023-05-17T10:53:12.019Z,100890.83
2023-05-17T10:55:45.077Z,100894.58
2023-05-17T10:58:19.931Z,100898.84
2023-05-17T11:00:55.849Z,100910.63
2023-05-17T11:03:31.716Z,100913.52
2023-05-17T11:06:25.546Z,100907.27
2023-05-17T11:09:16.386Z,100915.48
2023-05-17T11:12:06.912Z,100914.74
2023-05-17T11:14:56.497Z,100921.80
2023-05-17T11:17:35.463Z,100926.25
2023-05-17T11:20:13.590Z,100924.14
2023-05-17T11:22:51.225Z,100922.19
2023-05-17T11:25:24.269Z,100927.89
2023-05-17T11:27:56.276Z,100932.58
2023-05-17T11:30:29.840Z,100929.39
2023-05-17T11:33:05.690Z,100930.73
2023-05-17T11:35:41.573Z,100936.11
2023-05-17T11:38:18.799Z,100935.19
2023-05-17T11:40:53.352Z,100934.45
2023-05-17T11:43:28.856Z,100935.70
2023-05-17T11:46:02.379Z,100933.35
2023-05-17T11:48:34.713Z,100931.19
2023-05-17T11:51:07.398Z,100932.95
2023-05-17T11:53:38.740Z,100930.05
2023-05-17T11:56:12.399Z,100938.02
2023-05-17T11:58:45.416Z,100937.33
2023-05-17T12:01:17.604Z,100935.39
2023-05-17T12:03:57.139Z,100940.03
2023-05-17T12:06:30.349Z,100937.66
2023-05-17T12:09:03.581Z,100939.05
2023-05-17T12:11:36.208Z,100932.14
2023-05-17T12:14:08.499Z,100941.77
2023-05-17T12:16:44.493Z,100940.35
2023-05-17T12:19:25.176Z,100944.52
2023-05-17T12:22:06.293Z,100938.13
2023-05-17T12:24:42.922Z,100938.80
2023-05-17T12:27:14.802Z,100946.85
2023-05-17T12:29:46.785Z,100955.98
2023-05-17T12:32:18.633Z,100956.41
2023-05-17T12:34:51.793Z,100961.11
2023-05-17T12:37:23.901Z,100966.10
2023-05-17T12:39:56.176Z,100967.05
2023-05-17T12:42:28.102Z,100962.84
2023-05-17T12:45:01.952Z,100956.16
2023-05-17T12:47:34.897Z,100956.58
2023-05-17T12:50:06.030Z,100959.84
2023-05-17T12:52:38.072Z,100964.19
2023-05-17T12:55:15.583Z,100956.69
2023-05-17T12:57:53.618Z,100953.33
2023-05-17T13:00:26.202Z,100957.94
2023-05-17T13:02:58.444Z,100952.81
2023-05-17T13:05:30.650Z,100954.30
2023-05-17T13:08:22.077Z,100951.54
2023-05-17T13:10:53.999Z,100949.17
2023-05-17T13:13:26.083Z,100951.94
2023-05-17T13:16:00.856Z,100952.07
2023-05-17T13:18:35.856Z,100947.65
2023-05-17T13:21:08.622Z,100943.65
2023-05-17T13:23:45.034Z,100939.64
2023-05-17T13:26:17.434Z,100933.70
2023-05-17T13:28:49.390Z,100936.89
2023-05-17T13:31:21.471Z,100936.73
2023-05-17T13:33:53.518Z,100942.65
2023-05-17T13:36:25.808Z,100936.81
2023-05-17T13:38:58.159Z,100943.20
2023-05-17T13:41:30.437Z,100940.37
2023-05-17T13:44:02.565Z,100935.08
2023-05-17T13:46:34.590Z,100937.25
2023-05-17T13:49:08.308Z,100947.67
2023-05-17T13:51:40.282Z,100956.42
2023-05-17T13:54:12.949Z,100954.98
2023-05-17T13:56:45.041Z,100957.36
2023-05-17T13:59:17.333Z,100965.98
2023-05-17T14:01:49.614Z,100960.55
2023-05-17T14:04:22.799Z,100966.56
2023-05-17T14:06:55.398Z,100972.61
2023-05-17T14:09:26.849Z,100972.15
2023-05-17T14:12:01.024Z,100975.52
2023-05-17T14:14:34.491Z,100972.23
2023-05-17T14:17:06.873Z,100971.23
2023-05-17T14:19:39.121Z,100977.17
2023-05-17T14:22:11.597Z,100980.30
2023-05-17T14:24:43.969Z,100973.11
2023-05-17T14:27:16.792Z,100972.52
2023-05-17T14:29:48.780Z,100974.23
2023-05-17T14:32:20.833Z,100974.95
2023-05-17T14:34:52.896Z,100983.50
2023-05-17T14:37:24.835Z,100986.84
2023-05-17T14:40:06.023Z,100994.73
2023-05-17T14:42:38.932Z,100993.81
2023-05-17T14:45:12.073Z,101000.59
2023-05-17T14:47:44.412Z,101007.26
2023-05-17T14:50:16.700Z,101009.11
2023-05-17T14:52:48.852Z,101008.70
2023-05-17T14:55:21.594Z,101016.88
2023-05-17T14:57:53.507Z,101023.02
2023-05-17T15:00:26.988Z,101027.20
2023-05-17T15:02:59.180Z,101025.42
2023-05-17T15:05:31.375Z,101030.23
2023-05-17T15:08:04.529Z,101030.05
2023-05-17T15:10:38.517Z,101036.70
2023-05-17T15:13:10.897Z,101034.24
2023-05-17T15:15:44.311Z,101033.91
2023-05-17T15:18:16.363Z,101031.52
2023-05-17T15:20:48.531Z,101035.77
2023-05-17T15:23:21.031Z,101038.26
2023-05-17T15:25:53.334Z,101040.90
2023-05-17T15:28:26.420Z,101044.40
2023-05-17T15:31:10.580Z,101045.78
2023-05-17T15:33:43.405Z,101049.48
2023-05-17T15:36:16.445Z,101051.39
2023-05-17T15:38:48.725Z,101058.13
2023-05-17T15:41:29.735Z,101057.13
2023-05-17T15:44:02.741Z,101058.06
2023-05-17T15:46:34.805Z,101056.48
2023-05-17T15:49:07.143Z,101055.55
2023-05-17T15:51:38.955Z,101063.70
2023-05-17T15:54:10.893Z,101065.38
2023-05-17T15:56:43.010Z,101064.80
2023-05-17T15:59:15.866Z,101069.27
2023-05-17T16:01:47.659Z,101069.39
2023-05-17T16:04:19.559Z,101074.95
2023-05-17T16:06:52.106Z,101077.11
2023-05-17T16:09:24.133Z,101075.09
2023-05-17T16:11:56.138Z,101077.16
2023-05-17T16:14:28.086Z,101080.41
2023-05-17T16:17:00.500Z,101088.23
2023-05-17T16:19:34.019Z,101092.30
2023-05-17T16:22:06.858Z,101096.59
2023-05-17T16:24:38.797Z,101096.44
2023-05-17T16:27:11.197Z,101098.14
2023-05-17T16:29:43.456Z,101096.98
2023-05-17T16:32:15.454Z,101098.34
2023-05-17T16:34:47.726Z,101099.38
2023-05-17T16:37:19.722Z,101106.36
2023-05-17T16:39:51.535Z,101107.48
2023-05-17T16:42:23.497Z,101110.41
2023-05-17T16:44:55.445Z,101116.27
2023-05-17T16:47:28.328Z,101114.80
2023-05-17T16:50:01.582Z,101116.74
2023-05-17T16:52:33.704Z,101117.22
2023-05-17T16:55:06.046Z,101118.27
2023-05-17T16:57:37.992Z,101121.82
2023-05-17T17:00:12.555Z,101127.31
2023-05-17T17:02:44.340Z,101131.39
2023-05-17T17:05:17.137Z,101135.40
2023-05-17T17:07:49.413Z,101134.36
2023-05-17T17:10:22.009Z,101133.91
2023-05-17T17:12:53.842Z,101132.16
2023-05-17T17:15:25.826Z,101136.31
2023-05-17T17:17:57.616Z,101134.55
2023-05-17T17:20:30.030Z,101141.68
2023-05-17T17:23:02.266Z,101143.02
2023-05-17T17:25:34.586Z,101143.75
2023-05-17T17:28:07.022Z,101144.55
2023-05-17T17:30:39.194Z,101144.44
2023-05-17T17:33:12.214Z,101146.10
2023-05-17T17:35:44.196Z,101151.10
2023-05-17T17:38:16.087Z,101152.13
2023-05-17T17:40:48.533Z,101154.77
2023-05-17T17:43:20.749Z,101158.30
2023-05-17T17:45:53.240Z,101162.91
2023-05-17T17:48:25.397Z,101165.86
2023-05-17T17:50:57.449Z,101162.80
2023-05-17T17:53:29.789Z,101159.48
2023-05-17T17:56:01.640Z,101166.87
2023-05-17T17:58:33.599Z,101170.44
2023-05-17T18:01:06.230Z,101170.71
2023-05-17T18:03:38.148Z,101172.08
2023-05-17T18:06:10.396Z,101176.06
2023-05-17T18:08:42.414Z,101175.54
2023-05-17T18:11:14.335Z,101173.36
2023-05-17T18:13:46.579Z,101173.39
2023-05-17T18:16:18.414Z,101175.04
2023-05-17T18:18:50.230Z,101170.69
2023-05-17T18:21:22.301Z,101169.89
2023-05-17T18:23:54.262Z,101170.61
2023-05-17T18:26:26.152Z,101174.86
2023-05-17T18:28:58.056Z,101180.80
2023-05-17T18:31:30.271Z,101188.09
2023-05-17T18:34:02.376Z,101188.91
2023-05-17T18:36:34.555Z,101189.01
2023-05-17T18:39:06.947Z,101189.98
2023-05-17T18:41:39.107Z,101192.23
2023-05-17T18:44:12.116Z,101199.85
2023-05-17T18:46:45.181Z,101200.19
2023-05-17T18:49:21.207Z,101207.45
2023-05-17T18:51:53.184Z,101210.77
2023-05-17T18:54:25.471Z,101217.86
2023-05-17T18:56:57.399Z,101225.78
2023-05-17T18:59:29.173Z,101226.46
2023-05-17T19:02:01.119Z,101235.56
2023-05-17T19:04:32.448Z,101246.41
2023-05-17T19:07:04.695Z,101250.85
2023-05-17T19:09:36.772Z,101251.09
2023-05-17T19:12:09.761Z,101255.63
2023-05-17T19:14:41.772Z,101259.29
2023-05-17T19:17:13.767Z,101264.54
2023-05-17T19:19:46.010Z,101266.21
2023-05-17T19:22:18.210Z,101274.17
2023-05-17T19:24:50.785Z,101274.66
2023-05-17T19:27:22.866Z,101281.42
2023-05-17T19:29:55.057Z,101278.41
2023-05-17T19:32:27.062Z,101289.33
2023-05-17T19:34:59.284Z,101288.40
2023-05-17T19:37:31.062Z,101289.05
2023-05-17T19:40:02.989Z,101289.20
2023-05-17T19:42:35.209Z,101289.60
2023-05-17T19:45:09.367Z,101291.79
2023-05-17T19:47:41.568Z,101297.26
2023-05-17T19:50:14.903Z,101300.61
2023-05-17T19:52:47.077Z,101304.50
2023-05-17T19:55:22.071Z,101310.14
2023-05-17T19:57:54.191Z,101326.23
2023-05-17T20:00:26.767Z,101336.97
2023-05-17T20:02:58.789Z,101345.05
2023-05-17T20:05:31.313Z,101350.19
2023-05-17T20:08:05.188Z,101355.38
2023-05-17T20:10:37.096Z,101356.30
2023-05-17T20:13:09.002Z,101356.92
2023-05-17T20:15:41.062Z,101355.02
2023-05-17T20:18:13.363Z,101353.22
2023-05-17T20:20:45.483Z,101356.27
2023-05-17T20:23:17.495Z,101352.23
2023-05-17T20:25:49.344Z,101353.86
2023-05-17T20:28:21.236Z,101352.95
2023-05-17T20:30:53.476Z,101354.32
2023-05-17T20:33:26.816Z,101354.62
2023-05-17T20:35:59.469Z,101353.48
2023-05-17T20:38:31.319Z,101360.15
2023-05-17T20:41:03.053Z,101368.23
2023-05-17T20:43:35.122Z,101378.54
2023-05-17T20:46:09.842Z,101382.00
2023-05-17T20:48:42.891Z,101382.00
2023-05-17T20:51:15.510Z,101382.44
2023-05-17T20:53:48.252Z,101393.39
2023-05-17T20:56:19.444Z,101400.31
2023-05-17T20:58:52.354Z,101407.27
2023-05-17T21:01:24.360Z,101403.70
2023-05-17T21:03:58.452Z,101404.39
2023-05-17T21:06:32.760Z,101401.53
2023-05-17T21:09:05.513Z,101400.29
2023-05-17T21:11:38.796Z,101397.34
2023-05-17T21:14:09.412Z,101397.33
2023-05-17T21:16:41.681Z,101400.22
2023-05-17T21:19:14.671Z,101402.06
2023-05-17T21:21:45.250Z,101402.80
2023-05-17T21:24:17.418Z,101405.33
2023-05-17T21:26:49.544Z,101409.98
2023-05-17T21:29:21.786Z,101415.58
2023-05-17T21:31:54.262Z,101418.16
2023-05-17T21:34:26.885Z,101413.52
2023-05-17T21:36:58.984Z,101406.97
2023-05-17T21:39:31.098Z,101413.40
2023-05-17T21:42:03.217Z,101411.31
2023-05-17T21:44:35.363Z,101410.60
2023-05-17T21:47:07.855Z,101404.67
2023-05-17T21:49:40.235Z,101405.23
2023-05-17T21:52:12.324Z,101412.79
2023-05-17T21:54:44.278Z,101418.25
2023-05-17T21:57:16.342Z,101417.93
2023-05-17T21:59:48.769Z,101417.66
2023-05-17T22:02:21.128Z,101419.33
2023-05-17T22:04:54.338Z,101417.05
2023-05-17T22:07:26.368Z,101416.17
2023-05-17T22:10:00.619Z,101415.60
2023-05-17T22:12:35.035Z,101416.41
2023-05-17T22:15:11.000Z,101421.23
2023-05-17T22:17:48.416Z,101423.45
2023-05-17T22:20:26.379Z,101411.58
2023-05-17T22:22:58.691Z,101419.91
2023-05-17T22:25:31.019Z,101422.77
2023-05-17T22:28:03.166Z,101424.24
2023-05-17T22:30:35.326Z,101423.04
2023-05-17T22:33:07.993Z,101419.10
2023-05-17T22:35:41.558Z,101414.24
2023-05-17T22:38:15.976Z,101414.17
2023-05-17T22:40:48.116Z,101411.39
2023-05-17T22:43:21.669Z,101410.31
2023-05-17T22:45:54.242Z,101408.66
2023-05-17T22:48:26.510Z,101407.08
2023-05-17T22:50:59.038Z,101405.83
2023-05-17T22:53:31.684Z,101411.62
2023-05-17T22:56:03.740Z,101417.23
2023-05-17T22:58:36.674Z,101421.94
2023-05-17T23:01:08.959Z,101423.64
2023-05-17T23:03:41.512Z,101432.02
2023-05-17T23:06:13.995Z,101437.41
2023-05-17T23:08:46.214Z,101436.66
2023-05-17T23:11:19.994Z,101433.20
2023-05-17T23:13:52.590Z,101435.63
2023-05-17T23:16:26.092Z,101434.10
2023-05-17T23:19:00.302Z,101440.46
2023-05-17T23:21:33.344Z,101438.84
2023-05-17T23:24:08.086Z,101436.15
2023-05-17T23:26:40.321Z,101436.92
2023-05-17T23:29:12.831Z,101438.19
2023-05-17T23:31:47.850Z,101440.39
2023-05-17T23:34:21.030Z,101446.70
2023-05-17T23:36:53.822Z,101447.44
2023-05-17T23:39:24.406Z,101448.72
2023-05-17T23:41:58.252Z,101451.21
2023-05-17T23:44:30.695Z,101453.26
2023-05-17T23:47:04.318Z,101453.23
2023-05-17T23:49:36.792Z,101455.08
2023-05-17T23:52:11.027Z,101452.71
2023-05-17T23:54:43.683Z,101457.27
2023-05-17T23:57:16.086Z,101459.45
2023-05-17T23:59:48.231Z,101460.35
